Time;durP1;ratioP1;P1;durP2;ratioP2;P2;SDS_P1;SDS_P2;PMS_P1;PMS_P2;Temp;Humidity;BMP_temperature;BMP_pressure;BME280_temperature;BME280_humidity;BME280_pressure;Samples;Min_cycle;Max_cycle;Signal;HPM_P1;HPM_P2
2023/09/25 00:01:21;;;;;;;7.67;5.73;;;11.60;99.90;;;;;;5220383;28;20244;-48
2023/09/25 00:03:51;;;;;;;6.80;6.20;;;11.60;99.90;;;;;;5215282;28;20433;-49
2023/09/25 00:06:24;;;;;;;7.53;6.83;;;11.60;99.90;;;;;;5222865;28;20492;-48
2023/09/25 00:08:55;;;;;;;9.10;5.63;;;11.60;99.90;;;;;;5223937;28;20698;-49
2023/09/25 00:11:26;;;;;;;10.37;6.13;;;11.50;99.90;;;;;;5222461;28;20424;-48
2023/09/25 00:13:56;;;;;;;8.90;6.90;;;11.50;99.90;;;;;;5221606;28;20438;-48
2023/09/25 00:16:27;;;;;;;9.10;6.60;;;11.50;99.90;;;;;;5233172;28;20207;-49
2023/09/25 00:18:58;;;;;;;8.80;6.03;;;11.50;99.90;;;;;;5219415;28;20273;-49
2023/09/25 00:21:30;;;;;;;12.33;6.90;;;11.50;99.90;;;;;;5223680;28;20427;-48
2023/09/25 00:24:00;;;;;;;6.77;6.27;;;11.50;99.90;;;;;;5220119;28;20660;-48
2023/09/25 00:26:31;;;;;;;7.30;6.10;;;11.40;99.90;;;;;;5220838;28;20477;-49
2023/09/25 00:29:02;;;;;;;8.73;6.40;;;11.40;99.90;;;;;;5217362;28;20179;-50
2023/09/25 00:31:33;;;;;;;7.43;6.80;;;11.40;99.90;;;;;;5216947;28;20307;-49
2023/09/25 00:34:03;;;;;;;7.00;6.40;;;11.30;99.90;;;;;;5210201;28;20167;-49
2023/09/25 00:36:34;;;;;;;8.67;7.73;;;11.30;99.90;;;;;;5221579;28;20210;-49
2023/09/25 00:39:08;;;;;;;8.00;7.20;;;11.30;99.90;;;;;;5221103;28;20175;-49
2023/09/25 00:41:39;;;;;;;7.73;7.03;;;11.30;99.90;;;;;;5217948;28;20280;-49
2023/09/25 00:44:09;;;;;;;11.60;7.60;;;11.30;99.90;;;;;;5223798;28;20425;-48
2023/09/25 00:46:40;;;;;;;6.70;6.10;;;11.30;99.90;;;;;;5215480;28;20210;-49
2023/09/25 00:49:11;;;;;;;11.57;7.77;;;11.30;99.90;;;;;;5234448;28;20175;-48
2023/09/25 00:51:44;;;;;;;9.23;7.97;;;11.30;99.90;;;;;;5221766;28;20179;-49
2023/09/25 00:54:18;;;;;;;9.13;7.30;;;11.20;99.90;;;;;;5218941;28;20183;-49
2023/09/25 00:56:49;;;;;;;7.43;6.63;;;11.20;99.90;;;;;;5217032;28;20438;-48
2023/09/25 00:59:21;;;;;;;7.63;6.90;;;11.20;99.90;;;;;;5219638;28;20806;-48
2023/09/25 01:01:52;;;;;;;10.20;7.10;;;11.20;99.90;;;;;;5221017;28;20433;-49
2023/09/25 01:04:24;;;;;;;9.87;7.53;;;11.20;99.90;;;;;;5216585;28;20529;-48
2023/09/25 01:06:55;;;;;;;11.27;7.80;;;11.20;99.90;;;;;;5214309;28;20466;-49
2023/09/25 01:09:26;;;;;;;9.23;8.03;;;11.20;99.90;;;;;;5217514;28;20426;-48
2023/09/25 01:11:57;;;;;;;15.47;8.47;;;11.10;99.90;;;;;;5222114;28;20578;-48
2023/09/25 01:14:28;;;;;;;8.50;6.90;;;11.10;99.90;;;;;;5218177;28;20438;-48
2023/09/25 01:16:59;;;;;;;11.47;8.03;;;11.10;99.90;;;;;;5220850;28;20453;-49
2023/09/25 01:19:31;;;;;;;11.63;8.07;;;11.10;99.90;;;;;;5240377;28;20453;-47
2023/09/25 01:22:01;;;;;;;9.00;6.90;;;11.10;99.90;;;;;;5225780;28;20441;-48
2023/09/25 01:24:33;;;;;;;17.33;7.57;;;11.10;99.90;;;;;;5224637;28;20460;-48
2023/09/25 01:27:04;;;;;;;8.50;7.70;;;11.10;99.90;;;;;;5218817;28;20214;-48
2023/09/25 01:29:35;;;;;;;10.30;8.90;;;11.00;99.90;;;;;;5226603;28;20437;-49
2023/09/25 01:32:05;;;;;;;19.53;9.33;;;11.00;99.90;;;;;;5225043;28;20182;-46
2023/09/25 01:34:36;;;;;;;8.30;7.60;;;11.00;99.90;;;;;;5223745;28;20205;-48
2023/09/25 01:37:07;;;;;;;8.67;7.03;;;11.00;99.90;;;;;;5223616;28;20230;-49
2023/09/25 01:39:39;;;;;;;13.17;8.83;;;11.00;99.90;;;;;;5228666;28;20457;-48
2023/09/25 01:42:09;;;;;;;9.53;8.63;;;11.00;99.90;;;;;;5217653;28;20236;-48
2023/09/25 01:44:40;;;;;;;8.53;7.63;;;10.90;99.90;;;;;;5221071;28;20438;-48
2023/09/25 01:47:11;;;;;;;13.93;9.53;;;10.90;99.90;;;;;;5238165;28;20199;-48
2023/09/25 01:49:42;;;;;;;9.37;8.27;;;10.90;99.90;;;;;;5225934;28;20179;-48
2023/09/25 01:52:14;;;;;;;13.83;8.43;;;10.90;99.90;;;;;;5225932;28;20228;-52
2023/09/25 01:54:44;;;;;;;10.70;8.17;;;10.90;99.90;;;;;;5225698;28;20421;-49
2023/09/25 01:57:15;;;;;;;8.10;7.17;;;10.90;99.90;;;;;;5237943;28;20475;-49
2023/09/25 01:59:46;;;;;;;19.17;8.67;;;10.80;99.90;;;;;;5224162;28;20207;-47
2023/09/25 02:02:16;;;;;;;10.03;8.10;;;10.80;99.90;;;;;;5217824;28;20183;-48
2023/09/25 02:04:47;;;;;;;10.50;8.50;;;10.80;99.90;;;;;;5224913;28;20317;-49
2023/09/25 02:07:18;;;;;;;13.50;9.33;;;10.80;99.90;;;;;;5226013;28;20222;-49
2023/09/25 02:09:49;;;;;;;10.03;7.27;;;10.80;99.90;;;;;;5218881;28;20271;-49
2023/09/25 02:12:20;;;;;;;23.13;8.00;;;10.90;99.90;;;;;;5222074;28;20573;-48
2023/09/25 02:14:54;;;;;;;10.57;8.37;;;10.90;99.90;;;;;;5215914;28;20512;-48
2023/09/25 02:17:27;;;;;;;9.43;8.33;;;10.80;99.90;;;;;;5221627;28;20183;-48
2023/09/25 02:20:16;;;;;;;9.73;8.30;;;10.80;99.90;;;;;;5215725;28;20421;-47
2023/09/25 02:22:48;;;;;;;9.40;8.40;;;10.80;99.90;;;;;;5220634;28;20488;-48
2023/09/25 02:25:19;;;;;;;10.70;9.40;;;10.80;99.90;;;;;;5226827;28;20583;-47
2023/09/25 02:27:50;;;;;;;12.67;8.67;;;10.80;99.90;;;;;;5217773;28;20422;-49
2023/09/25 02:30:21;;;;;;;10.77;8.53;;;10.80;99.90;;;;;;5221696;28;20655;-48
2023/09/25 02:32:52;;;;;;;9.20;8.30;;;10.80;99.90;;;;;;5226020;28;20421;-48
2023/09/25 02:35:23;;;;;;;10.80;8.00;;;10.80;99.90;;;;;;5221197;28;20788;-48
2023/09/25 02:37:54;;;;;;;11.87;7.40;;;10.80;99.90;;;;;;5222287;28;20598;-48
2023/09/25 02:40:24;;;;;;;14.37;8.63;;;10.80;99.90;;;;;;5213509;28;20244;-48
2023/09/25 02:42:55;;;;;;;12.20;9.07;;;10.70;99.90;;;;;;5225067;28;20190;-48
2023/09/25 02:45:26;;;;;;;11.40;8.90;;;10.70;99.90;;;;;;5221539;28;20207;-47
2023/09/25 02:47:56;;;;;;;11.07;8.60;;;10.70;99.90;;;;;;5234841;28;20264;-48
2023/09/25 02:50:27;;;;;;;10.10;7.90;;;10.70;99.90;;;;;;5226723;28;20194;-48
2023/09/25 02:52:58;;;;;;;10.77;8.67;;;10.70;99.90;;;;;;5217984;28;20194;-47
2023/09/25 02:55:29;;;;;;;9.83;8.73;;;10.60;99.90;;;;;;5224634;28;20203;-47
2023/09/25 02:58:00;;;;;;;17.23;9.90;;;10.60;99.90;;;;;;5219711;28;20195;-50
2023/09/25 03:00:30;;;;;;;10.43;8.90;;;10.60;99.90;;;;;;5225583;28;20215;-47
2023/09/25 03:03:01;;;;;;;9.77;8.77;;;10.50;99.90;;;;;;5223332;28;20426;-48
2023/09/25 03:05:33;;;;;;;10.30;8.13;;;10.50;99.90;;;;;;5220279;28;20207;-48
2023/09/25 03:08:04;;;;;;;11.20;8.80;;;10.50;99.90;;;;;;5225226;28;20440;-48
2023/09/25 03:10:35;;;;;;;11.43;8.73;;;10.50;99.90;;;;;;5224280;28;20179;-48
2023/09/25 03:13:05;;;;;;;10.60;9.17;;;10.50;99.90;;;;;;5224387;28;20429;-47
2023/09/25 03:15:36;;;;;;;11.43;9.23;;;10.50;99.90;;;;;;5226366;28;20567;-48
2023/09/25 03:18:07;;;;;;;9.00;8.03;;;10.50;99.90;;;;;;5223057;28;20175;-48
2023/09/25 03:20:41;;;;;;;12.63;9.10;;;10.50;99.90;;;;;;5223041;28;20211;-47
2023/09/25 03:23:11;;;;;;;10.90;9.63;;;10.50;99.90;;;;;;5221091;28;20245;-48
2023/09/25 03:25:42;;;;;;;11.77;9.23;;;10.50;99.90;;;;;;5220013;28;20461;-47
2023/09/25 03:28:13;;;;;;;12.20;8.90;;;10.50;99.90;;;;;;5217496;28;20528;-47
2023/09/25 03:30:45;;;;;;;10.43;9.43;;;10.50;99.90;;;;;;5224850;28;20202;-48
2023/09/25 03:33:16;;;;;;;10.80;8.83;;;10.50;99.90;;;;;;5218834;28;20668;-48
2023/09/25 03:35:47;;;;;;;14.67;8.77;;;10.40;99.90;;;;;;5222316;28;20457;-48
2023/09/25 03:38:17;;;;;;;9.33;8.00;;;10.40;99.90;;;;;;5223086;28;20183;-49
2023/09/25 03:40:48;;;;;;;12.17;9.17;;;10.40;99.90;;;;;;5210891;28;20191;-48
2023/09/25 03:43:19;;;;;;;8.87;7.97;;;10.30;99.90;;;;;;5222362;28;20266;-47
2023/09/25 03:45:50;;;;;;;13.07;8.50;;;10.30;99.90;;;;;;5222673;28;20544;-48
2023/09/25 03:48:21;;;;;;;10.37;9.43;;;10.30;99.90;;;;;;5225136;28;20187;-48
2023/09/25 03:50:52;;;;;;;10.77;9.30;;;10.30;99.90;;;;;;5220270;28;20437;-46
2023/09/25 03:53:23;;;;;;;10.30;9.17;;;10.20;99.90;;;;;;5224329;28;20210;-48
2023/09/25 03:55:53;;;;;;;16.97;9.60;;;10.20;99.90;;;;;;5217371;28;20274;-47
2023/09/25 03:58:24;;;;;;;11.90;9.97;;;10.20;99.90;;;;;;5219158;28;20187;-47
2023/09/25 04:00:56;;;;;;;11.17;9.00;;;10.20;99.90;;;;;;5221931;28;20553;-48
2023/09/25 04:03:27;;;;;;;11.27;9.80;;;10.20;99.90;;;;;;5222220;28;20680;-47
2023/09/25 04:05:58;;;;;;;12.60;9.20;;;10.20;99.90;;;;;;5220791;28;20505;-47
2023/09/25 04:08:28;;;;;;;13.30;10.00;;;10.10;99.90;;;;;;5235709;28;20178;-47
2023/09/25 04:10:59;;;;;;;11.30;8.87;;;10.10;99.90;;;;;;5219272;28;20543;-47
2023/09/25 04:13:31;;;;;;;12.43;10.77;;;10.10;99.90;;;;;;5216779;28;20193;-47
2023/09/25 04:16:03;;;;;;;12.10;9.73;;;10.10;99.90;;;;;;5219195;28;20604;-47
2023/09/25 04:18:33;;;;;;;11.90;9.43;;;10.10;99.90;;;;;;5222109;28;20823;-47
2023/09/25 04:21:06;;;;;;;12.10;9.40;;;10.10;99.90;;;;;;5223475;28;20429;-48
2023/09/25 04:23:40;;;;;;;13.60;10.20;;;10.10;99.90;;;;;;5221561;28;20181;-47
2023/09/25 04:26:11;;;;;;;12.03;9.60;;;10.10;99.90;;;;;;5237364;28;20500;-48
2023/09/25 04:28:42;;;;;;;10.87;9.27;;;10.10;99.90;;;;;;5217347;28;20519;-48
2023/09/25 04:31:13;;;;;;;15.30;10.13;;;10.10;99.90;;;;;;5216216;28;20531;-49
2023/09/25 04:33:44;;;;;;;11.30;9.43;;;10.10;99.90;;;;;;5221527;28;20171;-49
2023/09/25 04:36:15;;;;;;;12.33;10.33;;;10.10;99.90;;;;;;5214791;28;20204;-50
2023/09/25 04:38:45;;;;;;;11.83;10.57;;;10.00;99.90;;;;;;5221573;28;20593;-48
2023/09/25 04:41:16;;;;;;;11.27;10.07;;;10.00;99.90;;;;;;5216072;28;20187;-48
2023/09/25 04:43:50;;;;;;;13.73;10.50;;;10.00;99.90;;;;;;5217089;28;20264;-48
2023/09/25 04:46:21;;;;;;;16.10;10.10;;;10.00;99.90;;;;;;5216387;28;20226;-48
2023/09/25 04:48:52;;;;;;;12.70;9.90;;;10.00;99.90;;;;;;5220384;28;20508;-47
2023/09/25 04:51:22;;;;;;;15.40;9.83;;;9.90;99.90;;;;;;5219152;28;20436;-47
2023/09/25 04:53:54;;;;;;;11.03;9.87;;;10.00;99.90;;;;;;5215837;28;20176;-48
2023/09/25 04:56:24;;;;;;;12.93;9.90;;;10.00;99.90;;;;;;5219296;28;20211;-49
2023/09/25 04:58:55;;;;;;;12.57;10.30;;;10.00;99.90;;;;;;5217734;28;20829;-48
2023/09/25 05:01:26;;;;;;;14.33;10.50;;;10.00;99.90;;;;;;5213899;28;20175;-49
2023/09/25 05:03:57;;;;;;;15.10;11.60;;;10.00;99.90;;;;;;5219966;28;20186;-49
2023/09/25 05:06:28;;;;;;;13.13;10.87;;;10.00;99.90;;;;;;5219125;28;20488;-50
2023/09/25 05:08:59;;;;;;;13.23;10.13;;;10.00;99.90;;;;;;5211560;28;20457;-50
2023/09/25 05:11:29;;;;;;;13.70;10.30;;;10.00;99.90;;;;;;5221370;28;20270;-50
2023/09/25 05:14:00;;;;;;;19.43;10.60;;;10.00;99.90;;;;;;5207040;28;20179;-50
2023/09/25 05:16:34;;;;;;;14.23;11.20;;;10.10;99.90;;;;;;5213330;28;20793;-50
2023/09/25 05:19:05;;;;;;;12.53;9.87;;;10.10;99.90;;;;;;5223628;28;20188;-49
2023/09/25 05:21:36;;;;;;;11.50;10.30;;;10.10;99.90;;;;;;5220505;28;20841;-49
2023/09/25 05:24:07;;;;;;;12.90;10.40;;;10.20;99.90;;;;;;5220290;28;20233;-51
2023/09/25 05:26:38;;;;;;;16.90;10.97;;;10.20;99.90;;;;;;5221564;28;20555;-50
2023/09/25 05:29:09;;;;;;;16.10;10.13;;;10.20;99.90;;;;;;5214845;28;20608;-51
2023/09/25 05:31:40;;;;;;;19.10;12.40;;;10.30;99.90;;;;;;5214888;28;20761;-51
2023/09/25 05:34:10;;;;;;;23.57;13.10;;;10.30;99.90;;;;;;5219213;28;20721;-50
2023/09/25 05:36:41;;;;;;;16.30;12.53;;;10.40;99.90;;;;;;5217455;28;20303;-49
2023/09/25 05:39:12;;;;;;;21.60;11.70;;;10.30;99.90;;;;;;5219342;28;20199;-49
2023/09/25 05:41:43;;;;;;;15.20;12.50;;;10.50;99.90;;;;;;5222817;28;20179;-50
2023/09/25 05:44:14;;;;;;;14.67;10.80;;;10.60;99.90;;;;;;5221539;28;20525;-50
2023/09/25 05:46:45;;;;;;;13.50;10.90;;;10.80;99.90;;;;;;5223702;28;20203;-50
2023/09/25 05:49:16;;;;;;;13.07;10.40;;;10.80;99.90;;;;;;5226458;28;20232;-50
2023/09/25 05:51:46;;;;;;;14.23;10.33;;;10.80;99.90;;;;;;5219492;28;20680;-51
2023/09/25 05:54:17;;;;;;;19.33;10.33;;;10.90;99.90;;;;;;5213939;28;20441;-50
2023/09/25 05:56:48;;;;;;;22.23;10.90;;;10.90;99.90;;;;;;5203982;28;20207;-49
2023/09/25 05:59:19;;;;;;;12.80;10.13;;;11.00;99.90;;;;;;5221032;28;20192;-50
2023/09/25 06:01:50;;;;;;;11.80;9.80;;;11.10;99.90;;;;;;5223715;28;20442;-50
2023/09/25 06:04:21;;;;;;;15.67;9.10;;;11.60;99.90;;;;;;5225291;28;20452;-49
2023/09/25 06:06:52;;;;;;;9.00;7.43;;;13.30;99.90;;;;;;5222539;28;20210;-50
2023/09/25 06:09:23;;;;;;;10.27;7.13;;;15.50;99.90;;;;;;5224046;28;20429;-50
2023/09/25 06:11:54;;;;;;;8.03;6.53;;;17.40;99.90;;;;;;5222543;28;20447;-50
2023/09/25 06:14:28;;;;;;;6.33;5.53;;;18.90;99.90;;;;;;5218521;28;20191;-49
2023/09/25 06:16:59;;;;;;;8.57;5.40;;;19.80;99.90;;;;;;5220094;28;20871;-50
2023/09/25 06:19:29;;;;;;;6.07;5.40;;;20.80;99.90;;;;;;5219233;28;20443;-51
2023/09/25 06:22:00;;;;;;;8.63;5.30;;;21.90;94.40;;;;;;5215425;28;20191;-50
2023/09/25 06:24:31;;;;;;;5.83;5.20;;;22.10;91.00;;;;;;5217279;28;20281;-47
2023/09/25 06:27:02;;;;;;;5.83;5.30;;;22.40;89.80;;;;;;5221307;28;20544;-49
2023/09/25 06:29:33;;;;;;;5.40;4.90;;;23.10;83.10;;;;;;5217924;28;20244;-48
2023/09/25 06:32:04;;;;;;;4.87;4.40;;;23.10;79.60;;;;;;5235327;28;20190;-51
2023/09/25 06:34:34;;;;;;;7.50;5.50;;;23.10;77.30;;;;;;5223138;28;20183;-49
2023/09/25 06:37:06;;;;;;;7.60;5.13;;;23.20;76.00;;;;;;5213871;28;20203;-53
2023/09/25 06:39:37;;;;;;;7.90;5.13;;;23.40;75.00;;;;;;5222377;28;20210;-51
2023/09/25 06:42:08;;;;;;;11.40;6.63;;;23.60;71.20;;;;;;5221541;28;20441;-52
2023/09/25 06:44:39;;;;;;;4.73;4.33;;;23.10;72.50;;;;;;5234602;28;20445;-53
2023/09/25 06:47:09;;;;;;;10.90;4.80;;;23.50;73.20;;;;;;5222667;28;20465;-53
2023/09/25 06:49:40;;;;;;;4.47;4.13;;;24.30;68.50;;;;;;5222646;28;20274;-50
2023/09/25 06:52:11;;;;;;;5.27;4.77;;;24.70;65.30;;;;;;5222351;28;20701;-51
2023/09/25 06:54:43;;;;;;;5.10;4.67;;;24.40;65.40;;;;;;5218627;28;20194;-53
2023/09/25 06:57:13;;;;;;;4.47;4.17;;;24.70;64.40;;;;;;5214763;28;20796;-51
2023/09/25 06:59:44;;;;;;;4.97;4.57;;;25.10;64.10;;;;;;5221717;28;20472;-52
2023/09/25 07:02:15;;;;;;;6.73;4.30;;;25.90;59.60;;;;;;5213759;28;20734;-52
2023/09/25 07:04:47;;;;;;;5.63;5.10;;;26.10;58.20;;;;;;5215593;28;20437;-51
2023/09/25 07:07:20;;;;;;;4.83;4.53;;;26.10;58.20;;;;;;5221640;28;20305;-52
2023/09/25 07:09:55;;;;;;;6.80;3.97;;;26.10;57.00;;;;;;5217381;28;20438;-52
2023/09/25 07:12:28;;;;;;;5.23;3.53;;;26.50;56.00;;;;;;5217428;28;20429;-51
2023/09/25 07:15:01;;;;;;;10.43;5.20;;;27.30;55.00;;;;;;5217237;28;20463;-51
2023/09/25 07:17:32;;;;;;;11.20;4.03;;;27.40;53.00;;;;;;5216445;28;20507;-52
2023/09/25 07:20:05;;;;;;;4.07;3.77;;;27.50;52.60;;;;;;5216189;28;20516;-52
2023/09/25 07:22:36;;;;;;;4.73;4.40;;;27.20;51.70;;;;;;5217647;28;20179;-51
2023/09/25 07:25:07;;;;;;;5.20;4.50;;;27.00;52.30;;;;;;5222812;28;20440;-50
2023/09/25 07:27:38;;;;;;;11.27;4.40;;;27.50;51.60;;;;;;5218776;28;20542;-52
2023/09/25 07:30:10;;;;;;;5.27;4.20;;;28.30;50.10;;;;;;5221845;28;20446;-51
2023/09/25 07:32:42;;;;;;;4.20;3.90;;;28.50;49.20;;;;;;5220703;28;20177;-52
2023/09/25 07:35:15;;;;;;;9.00;4.00;;;28.90;48.20;;;;;;5214764;28;20427;-52
2023/09/25 07:37:47;;;;;;;4.47;4.07;;;28.30;48.50;;;;;;5216309;28;20458;-51
2023/09/25 07:40:18;;;;;;;6.70;4.23;;;27.60;49.70;;;;;;5215157;28;20449;-51
2023/09/25 07:42:49;;;;;;;5.33;4.50;;;27.60;49.50;;;;;;5217226;28;20512;-51
2023/09/25 07:45:22;;;;;;;4.40;4.00;;;27.00;50.60;;;;;;5218172;28;20569;-50
2023/09/25 07:47:54;;;;;;;5.70;4.07;;;26.30;51.60;;;;;;5216588;28;20186;-51
2023/09/25 07:50:25;;;;;;;4.17;3.77;;;25.50;53.30;;;;;;5214754;28;20430;-51
2023/09/25 07:52:59;;;;;;;6.00;4.13;;;24.20;56.00;;;;;;5217709;28;20438;-48
2023/09/25 07:55:30;;;;;;;4.00;3.70;;;23.00;58.50;;;;;;5213359;28;20199;-48
2023/09/25 07:58:04;;;;;;;4.43;3.63;;;22.50;60.80;;;;;;5228925;28;20454;-49
2023/09/25 08:00:39;;;;;;;4.93;4.43;;;22.30;61.60;;;;;;5218132;28;20175;-49
2023/09/25 08:03:13;;;;;;;5.80;3.80;;;21.80;63.00;;;;;;5215046;28;21348;-47
2023/09/25 08:05:44;;;;;;;7.23;4.97;;;21.70;64.20;;;;;;5219978;28;20452;-49
2023/09/25 08:08:15;;;;;;;4.67;3.80;;;21.20;65.40;;;;;;5223121;28;20464;-49
2023/09/25 08:10:47;;;;;;;6.00;4.40;;;20.50;67.20;;;;;;5218393;28;20593;-49
2023/09/25 08:13:18;;;;;;;7.57;3.87;;;19.70;70.40;;;;;;5216240;28;20453;-53
2023/09/25 08:15:52;;;;;;;5.47;4.10;;;19.50;72.40;;;;;;5219587;28;20551;-49
2023/09/25 08:18:23;;;;;;;5.90;5.30;;;19.40;73.70;;;;;;5218550;28;20440;-49
2023/09/25 08:20:54;;;;;;;4.77;4.33;;;18.90;75.70;;;;;;5217305;28;20433;-50
2023/09/25 08:23:26;;;;;;;6.33;4.77;;;18.40;79.10;;;;;;5211181;28;20473;-49
2023/09/25 08:25:56;;;;;;;4.17;3.87;;;18.20;83.70;;;;;;5216182;28;20199;-50
2023/09/25 08:28:27;;;;;;;7.77;4.10;;;17.90;88.10;;;;;;5215889;28;20446;-49
2023/09/25 08:30:58;;;;;;;4.70;4.30;;;17.80;91.30;;;;;;5219339;28;20528;-49
2023/09/25 08:33:29;;;;;;;4.40;4.10;;;17.90;92.20;;;;;;5217081;28;20179;-50
2023/09/25 08:36:00;;;;;;;4.70;4.30;;;18.00;93.30;;;;;;5214363;28;20984;-49
2023/09/25 08:38:31;;;;;;;6.93;5.20;;;17.80;94.40;;;;;;5215123;28;20760;-48
2023/09/25 08:41:02;;;;;;;4.93;4.43;;;17.80;95.10;;;;;;5222534;28;20449;-49
2023/09/25 08:43:33;;;;;;;4.07;3.83;;;17.80;95.60;;;;;;5219793;28;20195;-49
2023/09/25 08:46:04;;;;;;;4.50;4.13;;;17.90;96.70;;;;;;5228755;28;20594;-48
2023/09/25 08:48:36;;;;;;;5.73;4.30;;;18.10;96.40;;;;;;5219006;28;20434;-48
2023/09/25 08:51:08;;;;;;;3.70;3.40;;;18.20;96.70;;;;;;5211305;28;20183;-50
2023/09/25 08:53:39;;;;;;;3.80;3.57;;;18.10;96.60;;;;;;5215603;28;20437;-50
2023/09/25 08:56:12;;;;;;;4.80;4.47;;;18.20;96.70;;;;;;5218904;28;20469;-52
2023/09/25 08:58:44;;;;;;;3.90;2.90;;;18.20;96.90;;;;;;5220189;28;20195;-50
2023/09/25 09:01:16;;;;;;;10.10;4.13;;;18.30;96.80;;;;;;5217255;28;20979;-49
2023/09/25 09:03:46;;;;;;;4.03;3.50;;;18.30;96.50;;;;;;5221061;28;20448;-50
2023/09/25 09:06:17;;;;;;;4.63;3.67;;;18.20;96.90;;;;;;5218775;28;20465;-50
2023/09/25 09:08:49;;;;;;;8.00;3.50;;;18.20;97.00;;;;;;5218527;28;20553;-50
2023/09/25 09:11:21;;;;;;;3.53;3.30;;;18.40;97.00;;;;;;5221333;28;20260;-50
2023/09/25 09:13:51;;;;;;;3.20;3.03;;;18.50;96.40;;;;;;5212822;28;20817;-50
2023/09/25 09:16:23;;;;;;;6.50;3.10;;;18.60;96.10;;;;;;5217959;28;20463;-51
2023/09/25 09:19:14;;;;;;;6.83;3.30;;;18.70;95.90;;;;;;5214191;28;20183;-49
2023/09/25 09:21:45;;;;;;;3.13;2.93;;;18.90;95.40;;;;;;5215257;28;20536;-50
2023/09/25 09:24:22;;;;;;;4.23;3.93;;;19.00;94.90;;;;;;5212484;28;21091;-50
2023/09/25 09:26:53;;;;;;;3.30;3.10;;;19.10;94.10;;;;;;5217957;28;20229;-50
2023/09/25 09:29:24;;;;;;;3.83;3.63;;;19.10;93.90;;;;;;5215241;28;20433;-50
2023/09/25 09:31:57;;;;;;;6.27;3.50;;;18.90;93.70;;;;;;5216831;28;20574;-51
2023/09/25 09:34:28;;;;;;;4.73;3.40;;;18.80;93.80;;;;;;5216499;28;20261;-51
2023/09/25 09:37:00;;;;;;;5.37;3.00;;;18.70;94.20;;;;;;5219125;28;20517;-50
2023/09/25 09:39:36;;;;;;;5.30;4.07;;;18.80;94.30;;;;;;5222423;28;20275;-49
2023/09/25 09:42:09;;;;;;;11.43;3.93;;;18.80;94.40;;;;;;5218051;28;20849;-49
2023/09/25 09:44:40;;;;;;;7.00;3.83;;;18.90;94.20;;;;;;5222930;28;20445;-51
2023/09/25 09:47:12;;;;;;;8.63;3.87;;;19.10;93.50;;;;;;5220298;28;20882;-50
2023/09/25 09:49:44;;;;;;;3.67;3.30;;;19.10;93.20;;;;;;5217042;28;20268;-50
2023/09/25 09:52:19;;;;;;;4.17;3.77;;;19.20;93.40;;;;;;5219706;28;20441;-50
2023/09/25 09:54:51;;;;;;;3.20;2.97;;;19.40;92.70;;;;;;5216622;28;20455;-52
2023/09/25 09:57:23;;;;;;;3.57;3.27;;;19.50;92.50;;;;;;5225023;28;20481;-49
2023/09/25 09:59:55;;;;;;;6.73;3.23;;;19.50;92.30;;;;;;5227407;28;20441;-50
2023/09/25 10:02:29;;;;;;;6.93;3.53;;;19.50;91.80;;;;;;5220519;28;20436;-50
2023/09/25 10:05:00;;;;;;;4.23;3.83;;;19.60;91.70;;;;;;5226704;28;20445;-51
2023/09/25 10:07:31;;;;;;;4.40;3.27;;;19.70;91.50;;;;;;5226663;28;20468;-49
2023/09/25 10:10:06;;;;;;;2.73;2.53;;;19.80;91.10;;;;;;5223056;28;20440;-50
2023/09/25 10:12:37;;;;;;;4.60;3.23;;;19.80;90.80;;;;;;5220538;28;20187;-50
2023/09/25 10:15:09;;;;;;;8.23;3.50;;;19.90;91.00;;;;;;5224778;28;20852;-50
2023/09/25 10:17:44;;;;;;;3.70;3.40;;;19.90;90.20;;;;;;5223456;28;20437;-50
2023/09/25 10:20:30;;;;;;;3.77;3.23;;;19.90;90.40;;;;;;5219966;28;20439;-50
2023/09/25 10:23:09;;;;;;;7.97;3.60;;;19.90;90.00;;;;;;5221422;28;20444;-51
2023/09/25 10:25:50;;;;;;;3.50;3.20;;;19.80;89.60;;;;;;5221377;28;20477;-50
2023/09/25 10:28:31;;;;;;;8.03;3.10;;;19.60;89.30;;;;;;5221348;28;20441;-50
2023/09/25 10:31:04;;;;;;;2.40;2.30;;;19.70;90.20;;;;;;5218155;28;20464;-50
2023/09/25 10:33:37;;;;;;;3.67;3.43;;;19.70;89.80;;;;;;5216486;28;20433;-49
2023/09/25 10:36:11;;;;;;;4.40;3.30;;;19.60;90.00;;;;;;5216990;28;20463;-49
2023/09/25 10:38:41;;;;;;;3.40;3.10;;;19.50;90.40;;;;;;5216718;28;20452;-51
2023/09/25 10:41:14;;;;;;;4.07;3.77;;;19.50;90.30;;;;;;5220644;28;20453;-51
2023/09/25 10:43:45;;;;;;;4.57;4.17;;;19.60;90.10;;;;;;5220856;28;20647;-51
2023/09/25 10:46:17;;;;;;;3.67;3.47;;;19.80;90.00;;;;;;5219373;28;21035;-50
2023/09/25 10:48:48;;;;;;;7.73;3.10;;;19.90;88.80;;;;;;5223792;28;20839;-51
2023/09/25 10:51:20;;;;;;;3.67;2.50;;;19.90;87.90;;;;;;5219864;28;20551;-51
2023/09/25 10:53:51;;;;;;;3.53;3.00;;;19.90;86.50;;;;;;5219328;28;20472;-51
2023/09/25 10:56:22;;;;;;;5.90;2.37;;;20.00;86.90;;;;;;5202959;28;20992;-50
2023/09/25 10:58:53;;;;;;;4.90;2.23;;;20.00;87.80;;;;;;5213854;28;20260;-51
2023/09/25 11:01:28;;;;;;;2.37;2.17;;;20.10;85.20;;;;;;5212145;28;20451;-50
2023/09/25 11:03:59;;;;;;;6.37;2.57;;;20.10;84.70;;;;;;5214061;28;20612;-49
2023/09/25 11:06:30;;;;;;;5.20;2.70;;;20.10;84.30;;;;;;5218690;28;20473;-51
2023/09/25 11:09:04;;;;;;;3.77;2.70;;;20.20;84.80;;;;;;5215379;28;20179;-51
2023/09/25 11:11:35;;;;;;;3.23;2.90;;;20.30;85.40;;;;;;5214008;28;20494;-51
2023/09/25 11:14:06;;;;;;;3.37;2.37;;;20.40;84.10;;;;;;5218510;28;20537;-51
2023/09/25 11:16:37;;;;;;;6.33;2.40;;;20.50;82.70;;;;;;5213425;28;20209;-50
2023/09/25 11:19:15;;;;;;;2.73;2.63;;;20.50;82.10;;;;;;5214328;28;20438;-50
2023/09/25 11:21:50;;;;;;;6.53;2.20;;;20.60;81.20;;;;;;5217387;28;20441;-51
2023/09/25 11:24:20;;;;;;;6.53;2.67;;;20.60;81.40;;;;;;5213573;28;20439;-50
2023/09/25 11:26:51;;;;;;;2.60;2.40;;;20.60;81.40;;;;;;5214396;28;20840;-50
2023/09/25 11:29:33;;;;;;;4.00;2.17;;;20.60;81.20;;;;;;5218762;28;20195;-49
2023/09/25 11:32:04;;;;;;;6.13;3.43;;;20.70;81.10;;;;;;5220732;28;20186;-51
2023/09/25 11:34:38;;;;;;;3.93;2.77;;;20.70;81.10;;;;;;5222592;28;20457;-51
2023/09/25 11:37:22;;;;;;;2.20;2.10;;;20.60;80.20;;;;;;5223459;28;20457;-50
2023/09/25 11:39:53;;;;;;;2.73;2.40;;;20.60;80.00;;;;;;5220231;28;20440;-50
2023/09/25 11:42:24;;;;;;;2.60;2.50;;;20.60;80.70;;;;;;5213697;28;21874;-51
2023/09/25 11:44:55;;;;;;;5.30;2.60;;;20.70;80.60;;;;;;5216967;28;20218;-55
2023/09/25 11:47:26;;;;;;;2.50;1.80;;;20.60;80.70;;;;;;5223197;28;20315;-50
2023/09/25 11:50:00;;;;;;;7.00;1.90;;;20.60;81.40;;;;;;5232935;28;20664;-51
2023/09/25 11:52:32;;;;;;;6.70;2.50;;;20.70;81.10;;;;;;5217458;28;20647;-52
2023/09/25 11:55:08;;;;;;;12.30;2.53;;;20.80;80.00;;;;;;5217939;28;20437;-50
2023/09/25 11:57:41;;;;;;;2.47;2.27;;;20.80;79.60;;;;;;5220247;28;20445;-49
2023/09/25 12:00:18;;;;;;;3.50;3.20;;;20.90;79.80;;;;;;5212158;28;20448;-51
2023/09/25 12:02:49;;;;;;;4.20;2.17;;;21.00;79.90;;;;;;5207323;28;20453;-50
2023/09/25 12:05:21;;;;;;;3.03;2.83;;;21.10;78.70;;;;;;5212821;28;20462;-51
2023/09/25 12:07:52;;;;;;;8.60;2.40;;;21.10;78.90;;;;;;5213738;28;20839;-52
2023/09/25 12:10:24;;;;;;;2.40;2.13;;;21.10;78.80;;;;;;5211150;28;20484;-50
2023/09/25 12:12:54;;;;;;;3.03;2.27;;;20.90;77.70;;;;;;5215971;28;20441;-51
2023/09/25 12:15:25;;;;;;;1.80;1.70;;;20.90;78.30;;;;;;5210497;28;20454;-51
2023/09/25 12:17:56;;;;;;;2.40;2.30;;;20.80;77.50;;;;;;5219005;28;20183;-51
2023/09/25 12:20:28;;;;;;;3.17;2.27;;;20.80;77.90;;;;;;5215585;28;20922;-51
2023/09/25 12:22:59;;;;;;;7.70;2.77;;;20.80;77.20;;;;;;5219118;28;20180;-50
2023/09/25 12:25:30;;;;;;;2.40;2.30;;;20.80;77.40;;;;;;5219441;28;20887;-51
2023/09/25 12:28:00;;;;;;;3.40;3.10;;;20.80;77.50;;;;;;5209436;28;20548;-51
2023/09/25 12:30:32;;;;;;;2.50;2.27;;;20.80;77.00;;;;;;5217694;28;20490;-51
2023/09/25 12:33:03;;;;;;;2.03;1.93;;;20.80;77.20;;;;;;5211272;28;20179;-50
2023/09/25 12:35:36;;;;;;;2.37;2.27;;;20.90;76.10;;;;;;5233667;28;20806;-50
2023/09/25 12:38:07;;;;;;;3.13;2.30;;;20.90;77.10;;;;;;5222570;28;20441;-51
2023/09/25 12:40:38;;;;;;;7.50;2.47;;;21.00;77.10;;;;;;5224677;28;20440;-50
2023/09/25 12:43:08;;;;;;;3.00;2.60;;;21.10;76.10;;;;;;5219142;28;20184;-50
2023/09/25 12:45:39;;;;;;;2.43;2.33;;;21.20;75.90;;;;;;5230447;28;20546;-52
2023/09/25 12:48:11;;;;;;;1.90;1.87;;;21.20;75.70;;;;;;5216477;28;20179;-50
2023/09/25 12:50:41;;;;;;;2.80;2.60;;;21.20;75.70;;;;;;5222721;28;20179;-50
2023/09/25 12:53:12;;;;;;;5.60;2.43;;;21.10;75.70;;;;;;5223423;28;20444;-51
2023/09/25 12:55:44;;;;;;;2.80;2.60;;;21.20;76.00;;;;;;5217687;28;20613;-51
2023/09/25 12:58:16;;;;;;;1.80;1.80;;;21.20;76.30;;;;;;5220336;28;20513;-50
2023/09/25 13:00:47;;;;;;;2.50;2.20;;;21.30;76.20;;;;;;5213961;28;20441;-52
2023/09/25 13:03:18;;;;;;;3.43;2.10;;;21.30;75.40;;;;;;5214268;28;20436;-51
2023/09/25 13:05:49;;;;;;;4.00;2.03;;;21.30;76.00;;;;;;5212358;28;20470;-52